Time;durP1;ratioP1;P1;durP2;ratioP2;P2;SDS_P1;SDS_P2;PMS_P1;PMS_P2;Temp;Humidity;BMP_temperature;BMP_pressure;BME280_temperature;BME280_humidity;BME280_pressure;Samples;Min_cycle;Max_cycle;Signal;HPM_P1;HPM_P2
2021/04/28 00:01:18;;;;;;;10.43;9.70;;;24.50;60.40;;;;;;3631153;39;20473;-39
2021/04/28 00:03:45;;;;;;;10.03;9.43;;;24.50;60.50;;;;;;3621134;39;20487;-37
2021/04/28 00:06:12;;;;;;;9.87;9.17;;;24.50;60.50;;;;;;3630526;39;20478;-39
2021/04/28 00:08:38;;;;;;;9.07;8.55;;;24.50;60.50;;;;;;3621711;39;20490;-39
2021/04/28 00:11:05;;;;;;;8.87;8.40;;;24.50;60.50;;;;;;3629881;39;20218;-39
2021/04/28 00:13:32;;;;;;;9.27;8.67;;;24.50;60.60;;;;;;3629788;39;20888;-39
2021/04/28 00:15:59;;;;;;;9.98;9.27;;;24.50;60.60;;;;;;3630326;39;20501;-38
2021/04/28 00:18:27;;;;;;;10.90;9.80;;;24.50;60.60;;;;;;3630061;39;20471;-39
2021/04/28 00:20:54;;;;;;;10.20;9.50;;;24.50;60.60;;;;;;3630575;39;20476;-39
2021/04/28 00:23:21;;;;;;;10.53;9.83;;;24.40;60.50;;;;;;3630059;39;20573;-39
2021/04/28 00:25:47;;;;;;;10.10;9.40;;;24.50;60.60;;;;;;3628740;39;20730;-39
2021/04/28 00:28:15;;;;;;;8.90;8.43;;;24.50;60.60;;;;;;3630742;39;20492;-38
2021/04/28 00:30:43;;;;;;;9.53;9.03;;;24.40;60.60;;;;;;3631906;39;20584;-39
2021/04/28 00:33:12;;;;;;;10.03;9.43;;;24.40;60.60;;;;;;3630866;39;20493;-39
2021/04/28 00:35:38;;;;;;;9.57;9.00;;;24.50;60.70;;;;;;3630367;39;20469;-39
2021/04/28 00:38:06;;;;;;;9.70;9.20;;;24.40;60.60;;;;;;3630717;39;20466;-38
2021/04/28 00:40:39;;;;;;;9.80;9.20;;;24.40;60.60;;;;;;3629889;39;20482;-39
2021/04/28 00:43:07;;;;;;;9.83;9.30;;;24.40;60.60;;;;;;3629823;39;20496;-39
2021/04/28 00:45:34;;;;;;;10.23;9.63;;;24.40;60.60;;;;;;3631137;39;20492;-38
2021/04/28 00:48:03;;;;;;;9.50;8.90;;;24.40;60.70;;;;;;3630183;39;20510;-39
2021/04/28 00:50:36;;;;;;;9.63;9.00;;;24.40;60.70;;;;;;3618963;39;20743;-38
2021/04/28 00:53:04;;;;;;;9.82;9.32;;;24.40;60.70;;;;;;3618274;39;20565;-38
2021/04/28 00:55:32;;;;;;;9.90;9.20;;;24.40;60.70;;;;;;3629881;39;20588;-39
2021/04/28 00:58:00;;;;;;;9.80;9.30;;;24.40;60.80;;;;;;3620173;39;20483;-38
2021/04/28 01:00:28;;;;;;;10.10;9.43;;;24.40;61.50;;;;;;3628469;39;20488;-37
2021/04/28 01:02:56;;;;;;;11.23;10.20;;;24.40;60.80;;;;;;3620958;39;20585;-39
2021/04/28 01:05:24;;;;;;;11.10;10.10;;;24.40;60.90;;;;;;3621335;39;20481;-39
2021/04/28 01:07:51;;;;;;;10.53;9.90;;;24.40;60.90;;;;;;3629571;39;20480;-38
2021/04/28 01:10:22;;;;;;;10.07;9.48;;;24.40;60.90;;;;;;3619918;39;20767;-39
2021/04/28 01:12:51;;;;;;;9.83;9.33;;;24.40;60.90;;;;;;3619326;39;20224;-39
2021/04/28 01:15:22;;;;;;;9.70;9.20;;;24.40;61.00;;;;;;3630422;39;20465;-39
2021/04/28 01:17:56;;;;;;;10.00;9.50;;;24.40;60.90;;;;;;3628610;39;20483;-39
2021/04/28 01:20:25;;;;;;;9.73;9.23;;;24.40;60.90;;;;;;3619411;39;20521;-39
2021/04/28 01:22:53;;;;;;;10.70;10.10;;;24.40;60.90;;;;;;3620357;39;20579;-38
2021/04/28 01:25:22;;;;;;;9.80;9.20;;;24.40;60.90;;;;;;3620804;39;20501;-39
2021/04/28 01:27:56;;;;;;;10.37;9.63;;;24.40;60.90;;;;;;3628306;39;20464;-39
2021/04/28 01:30:29;;;;;;;10.07;9.27;;;24.40;60.90;;;;;;3620805;39;20950;-39
2021/04/28 01:32:57;;;;;;;9.90;9.33;;;24.40;60.90;;;;;;3621121;39;20768;-39
2021/04/28 01:35:26;;;;;;;10.53;10.00;;;24.40;60.90;;;;;;3630405;39;21191;-39
2021/04/28 01:37:56;;;;;;;10.40;9.70;;;24.40;61.70;;;;;;3619779;39;20510;-39
2021/04/28 01:40:26;;;;;;;10.00;9.40;;;24.40;60.90;;;;;;3625686;39;20473;-39
2021/04/28 01:42:54;;;;;;;9.90;9.33;;;24.40;61.00;;;;;;3625171;39;20483;-39
2021/04/28 01:45:22;;;;;;;11.17;10.40;;;24.40;61.00;;;;;;3625271;39;20566;-38
2021/04/28 01:47:50;;;;;;;9.53;8.93;;;24.40;61.00;;;;;;3625508;39;20494;-39
2021/04/28 01:50:20;;;;;;;9.40;9.00;;;24.40;61.00;;;;;;3615518;39;20474;-39
2021/04/28 01:52:50;;;;;;;9.80;9.30;;;24.40;61.00;;;;;;3625983;39;20514;-39
2021/04/28 01:55:20;;;;;;;10.57;9.97;;;24.40;61.00;;;;;;3616948;39;20551;-39
2021/04/28 01:58:23;;;;;;;11.27;10.37;;;24.40;61.10;;;;;;3610337;39;20480;-39
2021/04/28 02:00:51;;;;;;;10.10;9.60;;;24.40;61.10;;;;;;3616635;39;20855;-39
2021/04/28 02:03:22;;;;;;;10.43;9.73;;;24.40;61.10;;;;;;3625842;39;20445;-37
2021/04/28 02:05:52;;;;;;;10.37;9.73;;;24.40;61.10;;;;;;3615337;39;20472;-39
2021/04/28 02:08:21;;;;;;;9.90;9.30;;;24.40;61.10;;;;;;3616584;39;20541;-39
2021/04/28 02:10:50;;;;;;;9.80;9.20;;;24.40;61.10;;;;;;3616421;39;20518;-39
2021/04/28 02:13:22;;;;;;;10.47;9.87;;;24.40;61.10;;;;;;3616454;39;20884;-37
2021/04/28 02:15:54;;;;;;;10.40;9.53;;;24.40;61.20;;;;;;3625388;39;20480;-39
2021/04/28 02:18:22;;;;;;;10.33;9.80;;;24.40;61.20;;;;;;3615690;39;20484;-39
2021/04/28 02:20:53;;;;;;;9.87;9.37;;;24.40;61.20;;;;;;3626279;39;20768;-38
2021/04/28 02:23:53;;;;;;;9.73;9.23;;;24.40;61.20;;;;;;3625879;39;20533;-39
2021/04/28 02:26:25;;;;;;;9.63;9.20;;;24.40;61.10;;;;;;3624990;39;21022;-39
2021/04/28 02:28:53;;;;;;;9.97;9.57;;;24.40;61.20;;;;;;3615195;39;20316;-38
2021/04/28 02:31:21;;;;;;;10.65;10.05;;;24.40;61.20;;;;;;3624611;39;20470;-39
2021/04/28 02:33:55;;;;;;;9.87;9.37;;;24.40;61.20;;;;;;3615913;39;20222;-39
2021/04/28 02:37:00;;;;;;;10.43;9.82;;;24.40;61.20;;;;;;3582206;40;20763;-38
2021/04/28 02:39:52;;;;;;;10.23;9.63;;;24.40;61.20;;;;;;3622981;39;20740;-39
2021/04/28 02:42:23;;;;;;;9.60;9.20;;;24.40;61.10;;;;;;3625362;39;20472;-38
2021/04/28 02:44:51;;;;;;;10.70;10.10;;;24.40;61.10;;;;;;3624595;39;20483;-39
2021/04/28 02:47:23;;;;;;;10.77;10.17;;;24.40;61.20;;;;;;3624787;39;20483;-38
2021/04/28 02:49:52;;;;;;;10.10;9.60;;;24.40;61.20;;;;;;3623837;39;20534;-39
2021/04/28 02:52:44;;;;;;;10.53;9.93;;;24.40;61.20;;;;;;3624459;39;20487;-39
2021/04/28 02:55:13;;;;;;;9.60;9.20;;;24.40;61.20;;;;;;3614039;39;20509;-38
2021/04/28 02:57:44;;;;;;;10.63;10.00;;;24.40;61.20;;;;;;3614455;39;20500;-38
2021/04/28 03:00:16;;;;;;;9.10;8.70;;;24.40;61.20;;;;;;3611236;39;20507;-39
2021/04/28 03:02:45;;;;;;;10.10;9.60;;;24.40;61.30;;;;;;3614100;39;20571;-39
2021/04/28 03:05:17;;;;;;;10.93;10.23;;;24.40;61.30;;;;;;3614080;39;20477;-38
2021/04/28 03:08:08;;;;;;;10.32;9.82;;;24.40;61.30;;;;;;3600271;39;20940;-38
2021/04/28 03:10:39;;;;;;;10.70;10.00;;;24.40;61.30;;;;;;3615495;39;20252;-39
2021/04/28 03:13:11;;;;;;;10.20;9.70;;;24.40;61.30;;;;;;3615360;39;20492;-39
2021/04/28 03:15:39;;;;;;;11.27;10.57;;;24.50;61.40;;;;;;3614050;39;20493;-38
2021/04/28 03:18:11;;;;;;;10.90;10.30;;;24.40;61.30;;;;;;3614993;39;20524;-38
2021/04/28 03:20:40;;;;;;;11.23;10.63;;;24.50;61.30;;;;;;3616085;39;20516;-39
2021/04/28 03:23:12;;;;;;;11.13;10.50;;;24.50;61.40;;;;;;3617079;39;20482;-39
2021/04/28 03:25:40;;;;;;;11.45;10.70;;;24.40;61.30;;;;;;3617003;39;20470;-37
2021/04/28 03:28:10;;;;;;;10.77;10.17;;;24.40;61.30;;;;;;3615687;39;20234;-37
2021/04/28 03:30:38;;;;;;;10.23;9.73;;;24.50;61.40;;;;;;3615750;39;20474;-39
2021/04/28 03:33:05;;;;;;;10.47;9.87;;;24.50;61.40;;;;;;3616190;39;21079;-39
2021/04/28 03:35:52;;;;;;;10.37;9.77;;;24.50;61.40;;;;;;3616990;39;20488;-36
2021/04/28 03:38:38;;;;;;;11.00;10.40;;;24.50;61.30;;;;;;3616071;39;20533;-38
2021/04/28 03:41:07;;;;;;;10.90;10.30;;;24.50;61.40;;;;;;3614154;39;20515;-38
2021/04/28 03:43:35;;;;;;;10.73;10.15;;;24.50;61.40;;;;;;3613536;39;20578;-38
2021/04/28 03:46:03;;;;;;;10.77;10.27;;;24.50;61.40;;;;;;3615460;39;20229;-38
2021/04/28 03:48:51;;;;;;;11.33;10.77;;;24.50;61.40;;;;;;3619126;39;20489;-38
2021/04/28 03:51:22;;;;;;;11.53;10.83;;;24.50;61.30;;;;;;3615087;39;20910;-37
2021/04/28 03:54:10;;;;;;;11.10;10.50;;;24.50;61.30;;;;;;3624858;39;20480;-38
2021/04/28 03:56:39;;;;;;;10.50;10.00;;;24.50;61.30;;;;;;3625853;39;20496;-38
2021/04/28 03:59:10;;;;;;;10.53;10.13;;;24.60;61.40;;;;;;3626008;39;20481;-37
2021/04/28 04:01:38;;;;;;;11.23;10.70;;;24.60;61.40;;;;;;3615974;39;20492;-37
2021/04/28 04:04:09;;;;;;;11.37;10.73;;;24.60;61.30;;;;;;3625887;39;20478;-38
2021/04/28 04:06:37;;;;;;;10.97;10.37;;;24.60;61.30;;;;;;3623971;39;20469;-38
2021/04/28 04:09:14;;;;;;;11.90;11.17;;;24.60;61.20;;;;;;3604555;39;20506;-38
2021/04/28 04:11:45;;;;;;;11.00;10.50;;;24.70;61.30;;;;;;3604748;39;20905;-37
2021/04/28 04:14:20;;;;;;;11.20;10.60;;;24.70;61.30;;;;;;3618841;39;20478;-38
2021/04/28 04:16:50;;;;;;;10.77;10.27;;;24.70;61.20;;;;;;3624884;39;20868;-38
2021/04/28 04:19:19;;;;;;;9.90;9.50;;;24.70;61.30;;;;;;3624957;39;20568;-38
2021/04/28 04:22:02;;;;;;;11.30;10.70;;;24.70;61.20;;;;;;3615525;39;20491;-38
2021/04/28 04:25:00;;;;;;;10.43;9.90;;;24.70;61.20;;;;;;3616125;39;20508;-38
2021/04/28 04:27:27;;;;;;;11.00;10.40;;;24.70;61.20;;;;;;3625273;39;20491;-37
2021/04/28 04:30:16;;;;;;;10.60;10.07;;;24.80;61.30;;;;;;3624476;39;20494;-37
2021/04/28 04:33:02;;;;;;;11.40;10.80;;;24.80;61.30;;;;;;3614434;39;20500;-38
2021/04/28 04:35:48;;;;;;;12.20;11.63;;;24.80;61.30;;;;;;3614418;39;20478;-37
2021/04/28 04:38:35;;;;;;;11.03;10.53;;;24.80;61.20;;;;;;3614652;39;20572;-38
2021/04/28 04:41:38;;;;;;;12.27;11.67;;;24.80;61.20;;;;;;3583943;39;20497;-38
2021/04/28 04:44:26;;;;;;;11.33;10.80;;;24.80;61.10;;;;;;3619539;39;20472;-37
2021/04/28 04:47:05;;;;;;;10.63;10.03;;;24.80;61.10;;;;;;3623537;39;21237;-38
2021/04/28 04:49:32;;;;;;;11.60;11.00;;;24.90;61.20;;;;;;3623382;39;20502;-38
2021/04/28 04:51:59;;;;;;;11.20;10.70;;;24.90;61.20;;;;;;3621898;39;20483;-38
2021/04/28 04:54:27;;;;;;;11.00;10.40;;;24.90;61.20;;;;;;3621854;39;20498;-38
2021/04/28 04:56:55;;;;;;;11.43;10.83;;;24.90;61.10;;;;;;3621639;39;20544;-38
2021/04/28 04:59:23;;;;;;;11.90;11.20;;;24.90;61.10;;;;;;3621561;39;20472;-38
2021/04/28 05:01:50;;;;;;;10.60;9.90;;;25.00;61.90;;;;;;3613916;39;21124;-38
2021/04/28 05:04:18;;;;;;;10.80;10.20;;;24.90;61.10;;;;;;3610474;39;20946;-38
2021/04/28 05:06:44;;;;;;;10.30;9.90;;;24.90;61.10;;;;;;3609806;39;20497;-38
2021/04/28 05:09:12;;;;;;;10.65;10.05;;;24.90;61.10;;;;;;3610981;39;20558;-38
2021/04/28 05:11:39;;;;;;;11.25;10.65;;;25.00;61.20;;;;;;3609412;39;20236;-38
2021/04/28 05:14:06;;;;;;;12.40;11.60;;;25.00;61.20;;;;;;3613457;39;20319;-38
2021/04/28 05:16:33;;;;;;;11.60;10.90;;;25.00;61.20;;;;;;3640255;39;20579;-38
2021/04/28 05:19:01;;;;;;;11.33;10.73;;;25.00;61.10;;;;;;3640422;39;20535;-38
2021/04/28 05:21:29;;;;;;;11.80;11.20;;;25.00;61.10;;;;;;3629991;39;20488;-38
2021/04/28 05:23:58;;;;;;;11.47;10.87;;;25.00;61.10;;;;;;3630141;39;20486;-37
2021/04/28 05:26:43;;;;;;;11.23;10.63;;;25.00;61.10;;;;;;3628771;39;20491;-38
2021/04/28 05:29:10;;;;;;;11.27;10.70;;;25.00;61.10;;;;;;3628889;39;20480;-38
2021/04/28 05:31:37;;;;;;;10.68;10.18;;;25.00;61.00;;;;;;3628204;39;21255;-38
2021/04/28 05:34:05;;;;;;;11.20;10.70;;;25.00;61.00;;;;;;3628436;39;20217;-38
2021/04/28 05:36:32;;;;;;;10.83;10.23;;;25.00;61.00;;;;;;3626807;39;20503;-38
2021/04/28 05:39:00;;;;;;;10.97;10.27;;;25.00;61.00;;;;;;3627954;39;20537;-36
2021/04/28 05:41:29;;;;;;;11.43;10.80;;;25.10;61.30;;;;;;3628225;39;20494;-38
2021/04/28 05:43:57;;;;;;;10.33;9.83;;;25.10;61.30;;;;;;3618112;39;21383;-37
2021/04/28 05:46:25;;;;;;;11.05;10.25;;;25.10;61.40;;;;;;3626634;39;20771;-38
2021/04/28 05:48:53;;;;;;;10.50;10.00;;;25.10;61.50;;;;;;3625380;39;20240;-38
2021/04/28 05:51:19;;;;;;;11.47;10.60;;;25.10;61.50;;;;;;3616779;39;20476;-38
2021/04/28 05:53:50;;;;;;;13.40;12.43;;;25.10;61.60;;;;;;3614787;39;20580;-38
2021/04/28 05:56:20;;;;;;;11.20;10.60;;;25.10;61.70;;;;;;3615897;39;20779;-38
2021/04/28 05:58:52;;;;;;;14.50;11.20;;;25.10;61.70;;;;;;3614801;39;21113;-38
2021/04/28 06:01:19;;;;;;;11.90;11.13;;;25.10;61.80;;;;;;3611497;39;20483;-38
2021/04/28 06:03:46;;;;;;;13.90;11.73;;;25.10;61.90;;;;;;3615040;39;20600;-37
2021/04/28 06:06:15;;;;;;;19.37;17.93;;;25.10;62.10;;;;;;3620804;39;20463;-38
2021/04/28 06:08:44;;;;;;;18.80;17.10;;;24.70;49.80;;;;;;3620728;39;20510;-38
2021/04/28 06:11:12;;;;;;;17.75;16.20;;;23.50;48.40;;;;;;3619514;39;20472;-38
2021/04/28 06:13:38;;;;;;;15.43;14.30;;;23.00;51.30;;;;;;3612109;39;20763;-37
2021/04/28 06:16:05;;;;;;;14.83;13.53;;;23.10;54.20;;;;;;3621622;39;20937;-38
2021/04/28 06:18:32;;;;;;;15.02;13.65;;;23.40;56.40;;;;;;3619925;39;20495;-38
2021/04/28 06:20:58;;;;;;;15.03;13.60;;;23.70;57.70;;;;;;3621945;39;20223;-38
2021/04/28 06:23:28;;;;;;;16.63;14.30;;;23.90;58.70;;;;;;3619017;39;20506;-37
2021/04/28 06:25:54;;;;;;;16.63;14.87;;;24.10;59.20;;;;;;3620298;39;21132;-38
2021/04/28 06:28:22;;;;;;;15.03;13.83;;;24.20;59.60;;;;;;3618611;39;20614;-36
2021/04/28 06:30:48;;;;;;;15.13;13.53;;;24.30;59.80;;;;;;3621063;39;20464;-38
2021/04/28 06:33:21;;;;;;;15.80;14.27;;;24.40;60.00;;;;;;3621163;39;20979;-37
2021/04/28 06:35:48;;;;;;;16.60;15.10;;;24.50;60.20;;;;;;3619218;39;20477;-38
2021/04/28 06:38:15;;;;;;;15.80;14.53;;;24.60;60.10;;;;;;3620297;39;20512;-38
2021/04/28 06:40:41;;;;;;;16.10;14.47;;;24.70;60.00;;;;;;3613324;39;20821;-38
2021/04/28 06:43:08;;;;;;;15.83;14.73;;;24.70;59.90;;;;;;3616472;39;20735;-38
2021/04/28 06:45:37;;;;;;;15.43;14.43;;;24.80;59.90;;;;;;3607397;39;20506;-38
2021/04/28 06:48:04;;;;;;;15.20;14.00;;;24.90;59.80;;;;;;3605894;39;20530;-37
2021/04/28 06:50:31;;;;;;;15.40;14.40;;;24.90;59.80;;;;;;3602831;39;20505;-38
2021/04/28 06:52:57;;;;;;;15.53;14.37;;;25.00;59.70;;;;;;3607906;39;20476;-38
2021/04/28 06:55:24;;;;;;;14.13;13.10;;;25.00;59.60;;;;;;3605310;39;20761;-38
2021/04/28 06:57:55;;;;;;;15.43;14.13;;;25.00;59.50;;;;;;3605175;39;20337;-38
2021/04/28 07:00:23;;;;;;;15.07;13.80;;;25.10;59.40;;;;;;3603171;39;20391;-38
2021/04/28 07:02:51;;;;;;;13.60;12.50;;;25.10;59.30;;;;;;3605279;39;20722;-38
2021/04/28 07:05:18;;;;;;;14.07;13.17;;;25.20;59.30;;;;;;3604754;39;20965;-36
2021/04/28 07:07:44;;;;;;;14.63;13.53;;;25.20;59.10;;;;;;3605568;39;20575;-37
2021/04/28 07:10:12;;;;;;;15.13;14.07;;;25.20;59.00;;;;;;3619568;39;20926;-37
2021/04/28 07:12:38;;;;;;;13.30;12.50;;;25.10;58.90;;;;;;3611083;39;20492;-38
2021/04/28 07:15:07;;;;;;;13.83;12.93;;;25.20;58.90;;;;;;3621668;39;20882;-38
2021/04/28 07:17:34;;;;;;;14.00;13.00;;;25.10;58.70;;;;;;3622529;39;21368;-38
2021/04/28 07:20:04;;;;;;;14.53;13.43;;;25.10;58.70;;;;;;3620983;39;20486;-38
2021/04/28 07:22:31;;;;;;;13.63;12.73;;;25.20;58.70;;;;;;3619120;39;20476;-38
2021/04/28 07:24:58;;;;;;;14.37;13.20;;;25.20;58.70;;;;;;3619845;39;20509;-38
2021/04/28 07:27:25;;;;;;;15.17;13.90;;;25.10;58.50;;;;;;3618022;39;20483;-38
2021/04/28 07:29:51;;;;;;;14.50;13.40;;;25.10;58.40;;;;;;3616640;39;20823;-38
2021/04/28 07:32:18;;;;;;;14.93;14.03;;;25.10;58.40;;;;;;3617438;39;20516;-38
2021/04/28 07:34:45;;;;;;;13.97;13.00;;;25.10;58.30;;;;;;3615721;39;20777;-38
2021/04/28 07:37:13;;;;;;;14.77;13.73;;;25.10;58.30;;;;;;3614724;39;21113;-38
2021/04/28 07:39:40;;;;;;;13.43;12.63;;;25.10;58.70;;;;;;3614746;39;20488;-38
2021/04/28 07:42:10;;;;;;;14.63;13.73;;;25.10;58.20;;;;;;3615241;39;20482;-38
2021/04/28 07:44:37;;;;;;;15.10;13.63;;;25.10;58.20;;;;;;3620382;39;20472;-37
2021/04/28 07:47:03;;;;;;;14.50;13.40;;;25.10;58.00;;;;;;3620238;39;20474;-37
2021/04/28 07:49:30;;;;;;;14.13;13.33;;;25.10;57.90;;;;;;3616596;39;20480;-38
2021/04/28 07:51:57;;;;;;;14.67;13.00;;;25.10;58.00;;;;;;3618057;39;20481;-38
2021/04/28 07:54:27;;;;;;;14.65;13.65;;;25.10;58.10;;;;;;3618397;39;20581;-38
2021/04/28 07:56:55;;;;;;;15.40;13.97;;;25.10;58.00;;;;;;3618035;39;20257;-37
2021/04/28 07:59:22;;;;;;;14.48;13.30;;;25.10;57.90;;;;;;3610856;39;20785;-38
2021/04/28 08:01:49;;;;;;;13.90;12.93;;;25.10;57.80;;;;;;3610642;39;20495;-37
2021/04/28 08:04:16;;;;;;;14.20;13.07;;;25.10;57.80;;;;;;3609940;39;20897;-39
2021/04/28 08:06:42;;;;;;;15.03;13.60;;;25.10;57.80;;;;;;3609173;39;20558;-38
2021/04/28 08:09:09;;;;;;;13.97;13.07;;;25.10;57.70;;;;;;3608798;39;20483;-37
2021/04/28 08:11:36;;;;;;;14.30;13.20;;;25.10;57.70;;;;;;3613603;39;20473;-38
2021/04/28 08:14:03;;;;;;;13.87;12.80;;;25.10;57.50;;;;;;3611319;39;20560;-38
2021/04/28 08:16:32;;;;;;;13.97;13.07;;;25.10;57.50;;;;;;3610737;39;20470;-36
2021/04/28 08:18:59;;;;;;;14.57;13.30;;;25.00;57.10;;;;;;3610941;39;20566;-38
2021/04/28 08:21:26;;;;;;;12.73;12.00;;;25.10;57.10;;;;;;3608262;39;20503;-38
2021/04/28 08:23:52;;;;;;;13.67;12.77;;;25.00;57.10;;;;;;3612680;39;20497;-38
2021/04/28 08:26:20;;;;;;;13.17;12.27;;;25.10;57.10;;;;;;3615529;39;21328;-38
2021/04/28 08:28:49;;;;;;;13.25;12.55;;;25.00;57.00;;;;;;3614934;39;20477;-38
2021/04/28 08:31:17;;;;;;;12.60;11.90;;;25.00;57.00;;;;;;3620178;39;20244;-38
2021/04/28 08:33:45;;;;;;;13.07;12.20;;;25.00;56.90;;;;;;3615246;39;20482;-37
2021/04/28 08:36:13;;;;;;;13.18;12.25;;;25.00;56.90;;;;;;3612538;39;20477;-38
2021/04/28 08:38:39;;;;;;;12.47;11.57;;;25.00;56.90;;;;;;3611231;39;20232;-38
2021/04/28 08:41:08;;;;;;;14.00;13.30;;;25.00;56.80;;;;;;3612349;39;20515;-38
2021/04/28 08:43:35;;;;;;;13.47;12.50;;;25.00;56.70;;;;;;3603964;39;20669;-38
2021/04/28 08:46:03;;;;;;;13.50;12.60;;;25.00;56.70;;;;;;3610891;39;20509;-38
2021/04/28 08:48:32;;;;;;;12.47;11.67;;;25.00;56.90;;;;;;3608517;39;20492;-38
2021/04/28 08:51:00;;;;;;;12.40;11.60;;;25.00;56.80;;;;;;3610375;39;20618;-36
2021/04/28 08:53:30;;;;;;;11.67;11.07;;;25.00;56.80;;;;;;3616431;39;20894;-38
2021/04/28 08:56:04;;;;;;;13.00;12.10;;;25.00;56.60;;;;;;3618961;39;20923;-38
2021/04/28 08:58:32;;;;;;;11.60;11.00;;;25.00;56.60;;;;;;3620852;39;20521;-38
2021/04/28 09:00:59;;;;;;;11.77;11.10;;;24.90;56.60;;;;;;3619850;39;20480;-38
2021/04/28 09:03:44;;;;;;;12.63;11.43;;;25.00;56.80;;;;;;3620649;39;20495;-38
2021/04/28 09:06:34;;;;;;;12.30;11.70;;;24.90;56.70;;;;;;3620456;39;20702;-38
2021/04/28 09:09:06;;;;;;;12.53;11.73;;;24.90;56.60;;;;;;3618587;39;20534;-38
2021/04/28 09:11:43;;;;;;;12.02;11.43;;;24.80;56.20;;;;;;3616048;39;20493;-38
2021/04/28 09:14:15;;;;;;;12.53;11.50;;;24.80;56.50;;;;;;3611001;39;20225;-38
2021/04/28 09:16:44;;;;;;;12.20;11.40;;;24.80;56.50;;;;;;3610811;39;20579;-38
2021/04/28 09:19:32;;;;;;;11.57;11.07;;;24.70;56.70;;;;;;3614390;39;20489;-38
2021/04/28 09:22:35;;;;;;;13.37;12.20;;;24.70;56.80;;;;;;3619685;39;20485;-38
2021/04/28 09:25:41;;;;;;;13.13;12.03;;;24.70;56.80;;;;;;3620276;39;20488;-38
2021/04/28 09:28:31;;;;;;;12.20;11.52;;;24.70;56.90;;;;;;3620988;39;20588;-37
2021/04/28 09:31:14;;;;;;;11.80;11.00;;;24.70;57.10;;;;;;3616436;39;20304;-38
2021/04/28 09:33:51;;;;;;;12.30;11.30;;;24.80;57.30;;;;;;3610894;39;21126;-38
2021/04/28 09:36:31;;;;;;;12.40;11.70;;;24.70;57.20;;;;;;3611287;39;20486;-36
2021/04/28 09:39:07;;;;;;;13.23;12.20;;;24.70;57.30;;;;;;3615946;39;20466;-38
2021/04/28 09:41:40;;;;;;;11.43;10.83;;;24.70;57.40;;;;;;3613694;39;20516;-38
2021/04/28 09:44:33;;;;;;;12.03;11.40;;;24.80;57.50;;;;;;3615277;39;20490;-38
2021/04/28 09:47:06;;;;;;;12.38;11.73;;;24.70;57.50;;;;;;3612071;39;20477;-38
2021/04/28 09:49:51;;;;;;;12.47;11.77;;;24.80;57.70;;;;;;3613662;39;20233;-38
2021/04/28 09:52:40;;;;;;;12.87;12.23;;;24.80;57.70;;;;;;3608150;39;20459;-38
2021/04/28 09:55:10;;;;;;;12.93;12.23;;;24.80;57.70;;;;;;3611206;39;20561;-38
2021/04/28 09:57:41;;;;;;;12.47;11.70;;;24.80;57.80;;;;;;3615728;39;20504;-37
2021/04/28 10:00:17;;;;;;;11.90;11.20;;;24.80;57.80;;;;;;3614681;39;20491;-37
2021/04/28 10:02:51;;;;;;;11.60;10.70;;;24.80;57.90;;;;;;3621149;39;20938;-37
2021/04/28 10:05:27;;;;;;;11.32;10.70;;;24.80;58.00;;;;;;3619859;39;20514;-37
2021/04/28 10:08:08;;;;;;;12.07;11.27;;;24.80;58.10;;;;;;3609366;39;20230;-38
2021/04/28 10:10:44;;;;;;;12.53;11.73;;;24.80;58.10;;;;;;3620031;39;20510;-37
2021/04/28 10:13:11;;;;;;;12.77;11.97;;;24.80;58.10;;;;;;3620865;39;20494;-38
2021/04/28 10:15:39;;;;;;;12.40;11.70;;;24.80;58.10;;;;;;3620396;39;20914;-42
2021/04/28 10:18:09;;;;;;;12.53;11.80;;;24.80;58.20;;;;;;3619207;39;20486;-42
2021/04/28 10:20:39;;;;;;;11.67;11.07;;;24.80;58.20;;;;;;3619730;39;20481;-42
2021/04/28 10:23:11;;;;;;;13.00;12.10;;;24.80;58.20;;;;;;3586071;39;20481;-42
2021/04/28 10:25:39;;;;;;;14.23;13.03;;;24.80;58.30;;;;;;3606807;39;20910;-42
2021/04/28 10:28:09;;;;;;;14.10;13.23;;;24.70;54.10;;;;;;3612996;39;20486;-44
2021/04/28 10:30:40;;;;;;;14.27;12.90;;;24.70;53.50;;;;;;3627640;39;20581;-44
2021/04/28 10:33:14;;;;;;;13.23;12.47;;;24.70;54.10;;;;;;3628595;39;20228;-44
2021/04/28 10:35:42;;;;;;;13.00;12.10;;;24.70;55.50;;;;;;3623349;39;20562;-44
2021/04/28 10:38:11;;;;;;;12.75;12.05;;;24.70;56.40;;;;;;3624498;39;20493;-44
2021/04/28 10:40:39;;;;;;;13.20;12.30;;;24.70;56.80;;;;;;3622005;39;20227;-44
2021/04/28 10:43:08;;;;;;;13.60;12.70;;;24.80;57.10;;;;;;3623662;39;20479;-44
2021/04/28 10:45:38;;;;;;;13.23;12.53;;;24.70;57.10;;;;;;3623029;39;20495;-44
2021/04/28 10:48:11;;;;;;;13.00;12.30;;;24.70;57.30;;;;;;3624128;39;20479;-44
2021/04/28 10:50:39;;;;;;;12.17;11.47;;;24.70;57.50;;;;;;3625571;39;20500;-44
2021/04/28 10:53:17;;;;;;;13.00;12.20;;;24.70;57.60;;;;;;3623220;39;20480;-45
2021/04/28 10:55:54;;;;;;;12.75;12.15;;;24.70;57.70;;;;;;3612524;39;20914;-45
2021/04/28 10:58:42;;;;;;;13.93;13.13;;;24.70;57.90;;;;;;3614930;39;20241;-45
2021/04/28 11:01:15;;;;;;;12.70;12.00;;;24.70;58.00;;;;;;3610789;39;20571;-45
2021/04/28 11:03:48;;;;;;;12.80;12.00;;;24.70;58.10;;;;;;3608400;39;20480;-45
2021/04/28 11:06:35;;;;;;;13.30;12.50;;;24.70;58.10;;;;;;3609152;39;20482;-45
2021/04/28 11:09:20;;;;;;;13.63;12.73;;;24.70;58.30;;;;;;3610408;39;20479;-45
2021/04/28 11:11:55;;;;;;;13.03;12.33;;;24.70;58.30;;;;;;3610664;39;20494;-45
2021/04/28 11:14:49;;;;;;;12.40;11.70;;;24.70;58.30;;;;;;3612717;39;21305;-45
2021/04/28 11:17:29;;;;;;;12.70;11.97;;;24.80;58.50;;;;;;3612781;39;20578;-45
2021/04/28 11:20:20;;;;;;;12.40;11.70;;;24.80;58.50;;;;;;3612434;39;21057;-45
2021/04/28 11:22:47;;;;;;;13.30;12.20;;;24.70;58.50;;;;;;3613743;39;20473;-45
2021/04/28 11:25:19;;;;;;;12.77;12.07;;;24.70;58.60;;;;;;3614151;39;21049;-45
2021/04/28 11:28:10;;;;;;;13.30;12.27;;;24.70;58.70;;;;;;3607327;39;20483;-45
2021/04/28 11:30:43;;;;;;;13.37;12.47;;;24.70;58.80;;;;;;3611112;39;20485;-45
2021/04/28 11:33:34;;;;;;;12.77;12.07;;;24.70;58.80;;;;;;3612356;39;20499;-45
2021/04/28 11:36:19;;;;;;;13.40;12.40;;;24.70;58.90;;;;;;3596892;39;20486;-45
2021/04/28 11:38:51;;;;;;;12.30;11.60;;;24.60;58.90;;;;;;3606867;39;20493;-45
2021/04/28 11:41:24;;;;;;;13.00;12.20;;;24.60;58.90;;;;;;3602692;39;20492;-45
2021/04/28 11:43:57;;;;;;;13.00;12.30;;;24.70;59.00;;;;;;3600599;39;21102;-45
2021/04/28 11:46:29;;;;;;;12.80;12.00;;;24.60;59.00;;;;;;3598526;39;20529;-45
2021/04/28 11:48:59;;;;;;;12.90;12.10;;;24.60;59.10;;;;;;3601538;39;20498;-45
2021/04/28 11:51:29;;;;;;;13.23;12.30;;;24.60;59.10;;;;;;3603481;39;20495;-44
2021/04/28 11:53:59;;;;;;;13.67;12.77;;;24.60;59.10;;;;;;3603139;39;20489;-45
2021/04/28 11:56:31;;;;;;;12.93;12.23;;;24.60;59.10;;;;;;3601732;39;21271;-44
2021/04/28 11:59:00;;;;;;;13.03;12.43;;;24.60;59.20;;;;;;3605749;39;21529;-44
2021/04/28 12:01:30;;;;;;;13.77;12.57;;;24.60;59.20;;;;;;3615175;39;20484;-44
2021/04/28 12:06:48;;;;;;;12.90;12.10;;;24.60;59.30;;;;;;3610212;39;20921;-44
2021/04/28 12:09:23;;;;;;;13.00;12.00;;;24.60;59.40;;;;;;3612622;39;20484;-44
2021/04/28 12:12:08;;;;;;;13.13;12.33;;;24.60;59.30;;;;;;3613042;39;20931;-43
2021/04/28 12:14:39;;;;;;;12.73;11.83;;;24.60;59.40;;;;;;3614243;39;20581;-44
2021/04/28 12:17:07;;;;;;;13.47;12.40;;;24.60;59.40;;;;;;3615343;39;20476;-44
2021/04/28 12:19:36;;;;;;;13.30;12.53;;;24.60;59.40;;;;;;3614627;39;20485;-44
2021/04/28 12:22:05;;;;;;;13.17;12.30;;;24.60;59.40;;;;;;3613738;39;20493;-44
2021/04/28 12:24:34;;;;;;;12.95;12.10;;;24.60;59.40;;;;;;3610546;39;20497;-44
2021/04/28 12:27:03;;;;;;;14.17;13.20;;;24.60;59.40;;;;;;3603101;39;20597;-44
2021/04/28 12:29:33;;;;;;;13.90;13.10;;;24.60;59.40;;;;;;3612850;39;20580;-44
2021/04/28 12:32:03;;;;;;;13.90;12.90;;;24.60;59.40;;;;;;3612347;39;20481;-44
2021/04/28 12:34:31;;;;;;;12.87;12.17;;;24.60;59.50;;;;;;3615501;39;20884;-44
2021/04/28 12:37:27;;;;;;;13.50;12.80;;;24.60;59.50;;;;;;3613480;39;20567;-44
2021/04/28 12:39:59;;;;;;;13.38;12.68;;;24.60;59.50;;;;;;3614285;39;20958;-44
2021/04/28 12:42:29;;;;;;;13.07;12.37;;;24.50;59.40;;;;;;3615337;39;20825;-44
2021/04/28 12:44:58;;;;;;;12.53;11.93;;;24.60;59.50;;;;;;3605068;39;20496;-44
2021/04/28 12:47:30;;;;;;;13.03;12.33;;;24.60;59.50;;;;;;3615272;39;20516;-44
2021/04/28 12:50:19;;;;;;;13.87;12.97;;;24.50;59.50;;;;;;3618700;39;20523;-44
2021/04/28 12:52:47;;;;;;;12.90;12.10;;;24.60;59.50;;;;;;3618847;39;20471;-44
2021/04/28 12:55:44;;;;;;;14.90;13.70;;;24.60;59.50;;;;;;3610699;39;20872;-44
2021/04/28 12:58:13;;;;;;;14.13;13.13;;;24.50;59.50;;;;;;3588453;39;20739;-44